sensor_id;sensor_type;location;lat;lon;timestamp;P1;durP1;ratioP1;P2;durP2;ratioP2
20802;SDS011;10562;-33.856;151.182;2023-03-31T00:00:37;2.47;;;1.20;;
20802;SDS011;10562;-33.856;151.182;2023-03-31T00:03:10;3.10;;;1.10;;
20802;SDS011;10562;-33.856;151.182;2023-03-31T00:05:47;2.28;;;0.90;;
20802;SDS011;10562;-33.856;151.182;2023-03-31T00:08:19;2.78;;;1.00;;
20802;SDS011;10562;-33.856;151.182;2023-03-31T00:10:49;5.03;;;1.33;;
20802;SDS011;10562;-33.856;151.182;2023-03-31T00:13:21;1.95;;;1.08;;
20802;SDS011;10562;-33.856;151.182;2023-03-31T00:15:55;2.70;;;1.20;;
20802;SDS011;10562;-33.856;151.182;2023-03-31T00:18:29;1.95;;;0.90;;
20802;SDS011;10562;-33.856;151.182;2023-03-31T00:21:05;2.55;;;1.05;;
20802;SDS011;10562;-33.856;151.182;2023-03-31T00:23:39;2.28;;;1.00;;
20802;SDS011;10562;-33.856;151.182;2023-03-31T00:26:10;2.38;;;0.98;;
20802;SDS011;10562;-33.856;151.182;2023-03-31T00:28:41;1.80;;;0.77;;
20802;SDS011;10562;-33.856;151.182;2023-03-31T00:31:11;2.70;;;0.93;;
20802;SDS011;10562;-33.856;151.182;2023-03-31T00:33:44;1.60;;;0.90;;
20802;SDS011;10562;-33.856;151.182;2023-03-31T00:36:15;1.38;;;0.80;;
20802;SDS011;10562;-33.856;151.182;2023-03-31T00:38:53;1.77;;;0.88;;
20802;SDS011;10562;-33.856;151.182;2023-03-31T00:41:24;1.70;;;0.80;;
20802;SDS011;10562;-33.856;151.182;2023-03-31T00:44:04;1.73;;;0.80;;
20802;SDS011;10562;-33.856;151.182;2023-03-31T00:46:39;2.60;;;0.82;;
20802;SDS011;10562;-33.856;151.182;2023-03-31T00:49:16;1.33;;;0.68;;
20802;SDS011;10562;-33.856;151.182;2023-03-31T00:51:54;1.23;;;0.80;;
20802;SDS011;10562;-33.856;151.182;2023-03-31T00:54:29;1.73;;;0.65;;
20802;SDS011;10562;-33.856;151.182;2023-03-31T00:57:01;1.42;;;0.90;;
20802;SDS011;10562;-33.856;151.182;2023-03-31T00:59:34;3.03;;;1.00;;
20802;SDS011;10562;-33.856;151.182;2023-03-31T01:02:07;0.70;;;0.70;;
20802;SDS011;10562;-33.856;151.182;2023-03-31T01:04:43;2.53;;;0.70;;
20802;SDS011;10562;-33.856;151.182;2023-03-31T01:07:20;1.88;;;0.90;;
20802;SDS011;10562;-33.856;151.182;2023-03-31T01:09:56;2.65;;;0.80;;
20802;SDS011;10562;-33.856;151.182;2023-03-31T01:12:30;2.45;;;0.75;;
20802;SDS011;10562;-33.856;151.182;2023-03-31T01:15:05;1.00;;;0.60;;
20802;SDS011;10562;-33.856;151.182;2023-03-31T01:17:37;3.17;;;0.70;;
20802;SDS011;10562;-33.856;151.182;2023-03-31T01:20:12;2.55;;;0.60;;
20802;SDS011;10562;-33.856;151.182;2023-03-31T01:28:59;1.08;;;0.70;;
20802;SDS011;10562;-33.856;151.182;2023-03-31T01:34:47;3.22;;;0.70;;
20802;SDS011;10562;-33.856;151.182;2023-03-31T01:37:52;4.20;;;0.90;;
20802;SDS011;10562;-33.856;151.182;2023-03-31T01:40:50;1.83;;;0.70;;
20802;SDS011;10562;-33.856;151.182;2023-03-31T01:43:32;2.70;;;0.80;;
20802;SDS011;10562;-33.856;151.182;2023-03-31T01:46:09;1.80;;;0.70;;
20802;SDS011;10562;-33.856;151.182;2023-03-31T01:48:50;2.03;;;0.77;;
20802;SDS011;10562;-33.856;151.182;2023-03-31T01:51:30;2.05;;;1.08;;
20802;SDS011;10562;-33.856;151.182;2023-03-31T01:54:07;4.63;;;2.17;;
20802;SDS011;10562;-33.856;151.182;2023-03-31T01:56:45;1.52;;;0.60;;
20802;SDS011;10562;-33.856;151.182;2023-03-31T01:59:17;1.77;;;0.80;;
20802;SDS011;10562;-33.856;151.182;2023-03-31T02:01:52;1.90;;;0.80;;
20802;SDS011;10562;-33.856;151.182;2023-03-31T02:04:27;1.42;;;0.70;;
20802;SDS011;10562;-33.856;151.182;2023-03-31T02:07:02;1.30;;;0.75;;
20802;SDS011;10562;-33.856;151.182;2023-03-31T02:09:35;4.63;;;0.68;;
20802;SDS011;10562;-33.856;151.182;2023-03-31T02:12:12;1.25;;;0.50;;
20802;SDS011;10562;-33.856;151.182;2023-03-31T02:14:44;2.65;;;0.75;;
20802;SDS011;10562;-33.856;151.182;2023-03-31T02:17:18;3.20;;;0.70;;
20802;SDS011;10562;-33.856;151.182;2023-03-31T02:19:56;1.38;;;0.60;;
20802;SDS011;10562;-33.856;151.182;2023-03-31T02:22:31;0.90;;;0.57;;
20802;SDS011;10562;-33.856;151.182;2023-03-31T02:25:05;4.25;;;0.70;;
20802;SDS011;10562;-33.856;151.182;2023-03-31T02:27:41;4.60;;;0.80;;
20802;SDS011;10562;-33.856;151.182;2023-03-31T02:30:14;4.30;;;0.73;;
20802;SDS011;10562;-33.856;151.182;2023-03-31T02:32:45;3.03;;;0.80;;
20802;SDS011;10562;-33.856;151.182;2023-03-31T02:35:16;1.30;;;0.60;;
20802;SDS011;10562;-33.856;151.182;2023-03-31T02:37:50;1.30;;;0.50;;
20802;SDS011;10562;-33.856;151.182;2023-03-31T02:40:23;0.90;;;0.50;;
20802;SDS011;10562;-33.856;151.182;2023-03-31T02:42:57;0.50;;;0.50;;
20802;SDS011;10562;-33.856;151.182;2023-03-31T02:45:39;0.73;;;0.50;;
20802;SDS011;10562;-33.856;151.182;2023-03-31T02:48:13;1.05;;;0.60;;
20802;SDS011;10562;-33.856;151.182;2023-03-31T02:50:53;4.82;;;0.50;;
20802;SDS011;10562;-33.856;151.182;2023-03-31T02:53:46;1.75;;;0.60;;
20802;SDS011;10562;-33.856;151.182;2023-03-31T02:56:29;1.40;;;0.60;;
20802;SDS011;10562;-33.856;151.182;2023-03-31T02:59:13;3.75;;;0.90;;
20802;SDS011;10562;-33.856;151.182;2023-03-31T03:01:54;1.65;;;0.50;;
20802;SDS011;10562;-33.856;151.182;2023-03-31T03:04:55;3.30;;;0.80;;
20802;SDS011;10562;-33.856;151.182;2023-03-31T03:07:45;1.10;;;0.70;;
20802;SDS011;10562;-33.856;151.182;2023-03-31T03:10:21;3.80;;;0.60;;
20802;SDS011;10562;-33.856;151.182;2023-03-31T03:13:05;1.08;;;0.63;;
20802;SDS011;10562;-33.856;151.182;2023-03-31T03:15:44;2.20;;;0.70;;
20802;SDS011;10562;-33.856;151.182;2023-03-31T03:18:18;2.72;;;1.23;;
20802;SDS011;10562;-33.856;151.182;2023-03-31T03:20:49;1.33;;;0.60;;
20802;SDS011;10562;-33.856;151.182;2023-03-31T03:23:20;1.20;;;0.68;;
20802;SDS011;10562;-33.856;151.182;2023-03-31T03:25:51;1.45;;;0.52;;
20802;SDS011;10562;-33.856;151.182;2023-03-31T03:28:22;3.05;;;0.52;;
20802;SDS011;10562;-33.856;151.182;2023-03-31T03:30:55;1.42;;;0.60;;
20802;SDS011;10562;-33.856;151.182;2023-03-31T03:33:26;3.13;;;0.60;;
20802;SDS011;10562;-33.856;151.182;2023-03-31T03:35:56;3.65;;;0.60;;
20802;SDS011;10562;-33.856;151.182;2023-03-31T03:38:27;1.75;;;0.60;;
20802;SDS011;10562;-33.856;151.182;2023-03-31T03:40:58;3.70;;;0.75;;
20802;SDS011;10562;-33.856;151.182;2023-03-31T03:43:29;1.85;;;0.60;;
20802;SDS011;10562;-33.856;151.182;2023-03-31T03:46:01;3.33;;;0.70;;
20802;SDS011;10562;-33.856;151.182;2023-03-31T03:48:32;1.10;;;0.55;;
20802;SDS011;10562;-33.856;151.182;2023-03-31T03:51:03;1.15;;;0.60;;
20802;SDS011;10562;-33.856;151.182;2023-03-31T03:53:34;4.10;;;0.77;;
20802;SDS011;10562;-33.856;151.182;2023-03-31T03:56:05;2.90;;;0.60;;
20802;SDS011;10562;-33.856;151.182;2023-03-31T03:58:36;1.65;;;0.60;;
20802;SDS011;10562;-33.856;151.182;2023-03-31T04:01:08;1.80;;;0.73;;
20802;SDS011;10562;-33.856;151.182;2023-03-31T04:03:39;2.47;;;0.80;;
20802;SDS011;10562;-33.856;151.182;2023-03-31T04:06:10;1.23;;;0.60;;
20802;SDS011;10562;-33.856;151.182;2023-03-31T04:08:40;0.90;;;0.50;;
20802;SDS011;10562;-33.856;151.182;2023-03-31T04:11:12;2.60;;;0.70;;
20802;SDS011;10562;-33.856;151.182;2023-03-31T04:13:44;1.50;;;0.70;;
20802;SDS011;10562;-33.856;151.182;2023-03-31T04:16:17;2.45;;;0.63;;
20802;SDS011;10562;-33.856;151.182;2023-03-31T04:18:48;4.72;;;0.80;;
20802;SDS011;10562;-33.856;151.182;2023-03-31T04:21:21;0.68;;;0.57;;
20802;SDS011;10562;-33.856;151.182;2023-03-31T04:23:53;1.77;;;0.47;;
20802;SDS011;10562;-33.856;151.182;2023-03-31T04:26:27;3.33;;;0.70;;
20802;SDS011;10562;-33.856;151.182;2023-03-31T04:29:08;4.40;;;0.68;;
20802;SDS011;10562;-33.856;151.182;2023-03-31T04:31:42;0.60;;;0.50;;
20802;SDS011;10562;-33.856;151.182;2023-03-31T04:34:13;2.28;;;0.65;;
20802;SDS011;10562;-33.856;151.182;2023-03-31T04:36:44;1.27;;;0.50;;
20802;SDS011;10562;-33.856;151.182;2023-03-31T04:39:16;1.55;;;0.60;;
20802;SDS011;10562;-33.856;151.182;2023-03-31T04:41:52;1.42;;;0.57;;
20802;SDS011;10562;-33.856;151.182;2023-03-31T04:44:22;2.05;;;0.68;;
20802;SDS011;10562;-33.856;151.182;2023-03-31T04:46:55;3.08;;;0.77;;
20802;SDS011;10562;-33.856;151.182;2023-03-31T04:49:28;2.30;;;0.60;;
20802;SDS011;10562;-33.856;151.182;2023-03-31T04:51:59;1.52;;;0.50;;
20802;SDS011;10562;-33.856;151.182;2023-03-31T04:54:29;3.33;;;0.80;;
20802;SDS011;10562;-33.856;151.182;2023-03-31T04:57:00;1.65;;;0.70;;
20802;SDS011;10562;-33.856;151.182;2023-03-31T04:59:31;0.98;;;0.60;;
20802;SDS011;10562;-33.856;151.182;2023-03-31T05:02:04;1.75;;;0.55;;
20802;SDS011;10562;-33.856;151.182;2023-03-31T05:04:34;1.30;;;0.60;;
20802;SDS011;10562;-33.856;151.182;2023-03-31T05:07:05;2.22;;;0.60;;
20802;SDS011;10562;-33.856;151.182;2023-03-31T05:09:36;2.63;;;0.63;;
20802;SDS011;10562;-33.856;151.182;2023-03-31T05:12:07;2.25;;;0.70;;
20802;SDS011;10562;-33.856;151.182;2023-03-31T05:14:37;2.70;;;0.60;;
20802;SDS011;10562;-33.856;151.182;2023-03-31T05:17:10;0.57;;;0.43;;
20802;SDS011;10562;-33.856;151.182;2023-03-31T05:19:43;0.93;;;0.50;;
20802;SDS011;10562;-33.856;151.182;2023-03-31T05:22:14;2.03;;;0.60;;
20802;SDS011;10562;-33.856;151.182;2023-03-31T05:24:45;0.90;;;0.40;;
20802;SDS011;10562;-33.856;151.182;2023-03-31T05:27:16;1.48;;;0.50;;
20802;SDS011;10562;-33.856;151.182;2023-03-31T05:29:47;2.30;;;0.35;;
20802;SDS011;10562;-33.856;151.182;2023-03-31T05:32:20;4.15;;;0.50;;
20802;SDS011;10562;-33.856;151.182;2023-03-31T05:34:51;1.10;;;0.45;;
20802;SDS011;10562;-33.856;151.182;2023-03-31T05:37:22;2.92;;;0.40;;
20802;SDS011;10562;-33.856;151.182;2023-03-31T05:39:54;2.35;;;0.40;;
20802;SDS011;10562;-33.856;151.182;2023-03-31T05:42:24;0.55;;;0.40;;
20802;SDS011;10562;-33.856;151.182;2023-03-31T05:44:55;1.65;;;0.30;;
20802;SDS011;10562;-33.856;151.182;2023-03-31T05:47:28;0.82;;;0.40;;
20802;SDS011;10562;-33.856;151.182;2023-03-31T05:49:58;1.58;;;0.47;;
20802;SDS011;10562;-33.856;151.182;2023-03-31T05:52:32;0.40;;;0.30;;
20802;SDS011;10562;-33.856;151.182;2023-03-31T05:55:03;1.00;;;0.47;;
20802;SDS011;10562;-33.856;151.182;2023-03-31T05:57:34;1.70;;;0.40;;
20802;SDS011;10562;-33.856;151.182;2023-03-31T06:00:05;1.70;;;0.40;;
20802;SDS011;10562;-33.856;151.182;2023-03-31T06:02:39;0.80;;;0.57;;
20802;SDS011;10562;-33.856;151.182;2023-03-31T06:05:09;0.60;;;0.40;;
20802;SDS011;10562;-33.856;151.182;2023-03-31T06:07:40;0.68;;;0.35;;
20802;SDS011;10562;-33.856;151.182;2023-03-31T06:10:11;0.30;;;0.30;;
20802;SDS011;10562;-33.856;151.182;2023-03-31T06:12:42;1.00;;;0.40;;
20802;SDS011;10562;-33.856;151.182;2023-03-31T06:15:13;1.02;;;0.40;;
20802;SDS011;10562;-33.856;151.182;2023-03-31T06:17:45;1.10;;;0.30;;
20802;SDS011;10562;-33.856;151.182;2023-03-31T06:20:16;4.05;;;0.70;;
20802;SDS011;10562;-33.856;151.182;2023-03-31T06:22:47;4.63;;;0.50;;
20802;SDS011;10562;-33.856;151.182;2023-03-31T06:25:18;0.80;;;0.40;;
20802;SDS011;10562;-33.856;151.182;2023-03-31T06:27:49;1.25;;;0.32;;
20802;SDS011;10562;-33.856;151.182;2023-03-31T06:30:19;0.50;;;0.15;;
20802;SDS011;10562;-33.856;151.182;2023-03-31T06:32:52;0.95;;;0.30;;
20802;SDS011;10562;-33.856;151.182;2023-03-31T06:35:23;2.22;;;0.43;;
20802;SDS011;10562;-33.856;151.182;2023-03-31T06:37:54;0.93;;;0.30;;
20802;SDS011;10562;-33.856;151.182;2023-03-31T06:40:24;0.90;;;0.45;;
20802;SDS011;10562;-33.856;151.182;2023-03-31T06:42:55;2.10;;;0.40;;
20802;SDS011;10562;-33.856;151.182;2023-03-31T06:45:26;1.20;;;0.40;;
20802;SDS011;10562;-33.856;151.182;2023-03-31T06:47:58;0.75;;;0.20;;
20802;SDS011;10562;-33.856;151.182;2023-03-31T06:50:29;0.43;;;0.30;;
20802;SDS011;10562;-33.856;151.182;2023-03-31T06:53:00;0.95;;;0.55;;
20802;SDS011;10562;-33.856;151.182;2023-03-31T06:55:31;1.80;;;0.55;;
20802;SDS011;10562;-33.856;151.182;2023-03-31T06:58:01;1.52;;;0.50;;
20802;SDS011;10562;-33.856;151.182;2023-03-31T07:00:32;1.80;;;0.50;;
20802;SDS011;10562;-33.856;151.182;2023-03-31T07:03:05;1.08;;;0.40;;
20802;SDS011;10562;-33.856;151.182;2023-03-31T07:05:36;1.65;;;0.40;;
20802;SDS011;10562;-33.856;151.182;2023-03-31T07:08:07;1.67;;;0.30;;
20802;SDS011;10562;-33.856;151.182;2023-03-31T07:10:37;1.27;;;0.40;;
20802;SDS011;10562;-33.856;151.182;2023-03-31T07:13:08;0.95;;;0.38;;
20802;SDS011;10562;-33.856;151.182;2023-03-31T07:15:39;1.88;;;0.57;;
20802;SDS011;10562;-33.856;151.182;2023-03-31T07:18:11;1.35;;;0.40;;
20802;SDS011;10562;-33.856;151.182;2023-03-31T07:20:42;0.80;;;0.30;;
20802;SDS011;10562;-33.856;151.182;2023-03-31T07:23:17;0.88;;;0.40;;
20802;SDS011;10562;-33.856;151.182;2023-03-31T07:25:48;0.65;;;0.43;;
20802;SDS011;10562;-33.856;151.182;2023-03-31T07:28:19;0.73;;;0.50;;
20802;SDS011;10562;-33.856;151.182;2023-03-31T07:30:50;0.45;;;0.30;;
20802;SDS011;10562;-33.856;151.182;2023-03-31T07:33:23;0.98;;;0.50;;
20802;SDS011;10562;-33.856;151.182;2023-03-31T07:35:54;0.98;;;0.50;;
20802;SDS011;10562;-33.856;151.182;2023-03-31T07:38:25;1.25;;;0.50;;
20802;SDS011;10562;-33.856;151.182;2023-03-31T07:40:55;2.85;;;0.70;;
20802;SDS011;10562;-33.856;151.182;2023-03-31T07:43:26;2.42;;;0.40;;
20802;SDS011;10562;-33.856;151.182;2023-03-31T07:45:57;1.27;;;0.60;;
20802;SDS011;10562;-33.856;151.182;2023-03-31T07:48:30;1.15;;;0.70;;
20802;SDS011;10562;-33.856;151.182;2023-03-31T07:51:01;1.40;;;0.80;;
20802;SDS011;10562;-33.856;151.182;2023-03-31T07:53:32;1.48;;;0.73;;
20802;SDS011;10562;-33.856;151.182;2023-03-31T07:56:02;2.90;;;1.00;;
20802;SDS011;10562;-33.856;151.182;2023-03-31T07:58:33;1.83;;;1.15;;
20802;SDS011;10562;-33.856;151.182;2023-03-31T08:01:04;1.40;;;0.80;;
20802;SDS011;10562;-33.856;151.182;2023-03-31T08:03:37;1.50;;;0.80;;
20802;SDS011;10562;-33.856;151.182;2023-03-31T08:06:08;2.00;;;0.90;;
20802;SDS011;10562;-33.856;151.182;2023-03-31T08:08:38;1.35;;;0.80;;
20802;SDS011;10562;-33.856;151.182;2023-03-31T08:11:09;1.70;;;0.80;;
20802;SDS011;10562;-33.856;151.182;2023-03-31T08:13:40;3.45;;;0.70;;
20802;SDS011;10562;-33.856;151.182;2023-03-31T08:16:11;0.88;;;0.77;;
20802;SDS011;10562;-33.856;151.182;2023-03-31T08:18:43;2.17;;;0.90;;
20802;SDS011;10562;-33.856;151.182;2023-03-31T08:21:14;1.80;;;0.68;;
20802;SDS011;10562;-33.856;151.182;2023-03-31T08:23:45;1.25;;;0.57;;
20802;SDS011;10562;-33.856;151.182;2023-03-31T08:26:16;1.17;;;0.90;;
20802;SDS011;10562;-33.856;151.182;2023-03-31T08:28:49;1.95;;;0.98;;
20802;SDS011;10562;-33.856;151.182;2023-03-31T08:31:20;1.58;;;0.70;;
20802;SDS011;10562;-33.856;151.182;2023-03-31T08:33:53;1.48;;;0.70;;
20802;SDS011;10562;-33.856;151.182;2023-03-31T08:36:24;1.10;;;0.60;;
20802;SDS011;10562;-33.856;151.182;2023-03-31T08:38:55;0.85;;;0.60;;
20802;SDS011;10562;-33.856;151.182;2023-03-31T08:41:29;0.82;;;0.70;;
20802;SDS011;10562;-33.856;151.182;2023-03-31T08:44:05;1.17;;;0.85;;
20802;SDS011;10562;-33.856;151.182;2023-03-31T08:46:39;3.33;;;0.88;;
20802;SDS011;10562;-33.856;151.182;2023-03-31T08:49:14;2.45;;;1.00;;
20802;SDS011;10562;-33.856;151.182;2023-03-31T08:51:47;0.90;;;0.80;;
20802;SDS011;10562;-33.856;151.182;2023-03-31T08:54:20;2.25;;;1.10;;
20802;SDS011;10562;-33.856;151.182;2023-03-31T08:56:59;2.30;;;1.00;;
20802;SDS011;10562;-33.856;151.182;2023-03-31T08:59:32;1.00;;;0.80;;
20802;SDS011;10562;-33.856;151.182;2023-03-31T09:02:09;1.50;;;0.90;;
20802;SDS011;10562;-33.856;151.182;2023-03-31T09:04:57;3.47;;;1.00;;
20802;SDS011;10562;-33.856;151.182;2023-03-31T09:07:48;4.32;;;2.10;;
20802;SDS011;10562;-33.856;151.182;2023-03-31T09:10:32;3.70;;;1.60;;
20802;SDS011;10562;-33.856;151.182;2023-03-31T09:13:18;2.03;;;1.08;;
20802;SDS011;10562;-33.856;151.182;2023-03-31T09:16:09;2.40;;;1.10;;
20802;SDS011;10562;-33.856;151.182;2023-03-31T09:18:43;2.05;;;1.20;;
20802;SDS011;10562;-33.856;151.182;2023-03-31T09:21:18;1.60;;;1.10;;
20802;SDS011;10562;-33.856;151.182;2023-03-31T09:23:55;1.23;;;0.90;;
20802;SDS011;10562;-33.856;151.182;2023-03-31T09:26:32;2.20;;;1.30;;
20802;SDS011;10562;-33.856;151.182;2023-03-31T09:29:09;2.90;;;1.23;;
20802;SDS011;10562;-33.856;151.182;2023-03-31T09:31:44;4.35;;;1.10;;
20802;SDS011;10562;-33.856;151.182;2023-03-31T09:34:15;2.92;;;1.27;;
20802;SDS011;10562;-33.856;151.182;2023-03-31T09:36:53;2.20;;;1.05;;
20802;SDS011;10562;-33.856;151.182;2023-03-31T09:39:24;2.45;;;1.05;;
20802;SDS011;10562;-33.856;151.182;2023-03-31T09:41:55;2.47;;;1.00;;
20802;SDS011;10562;-33.856;151.182;2023-03-31T09:44:26;2.55;;;1.02;;
20802;SDS011;10562;-33.856;151.182;2023-03-31T09:47:01;3.28;;;1.05;;
20802;SDS011;10562;-33.856;151.182;2023-03-31T09:49:34;2.53;;;0.98;;
20802;SDS011;10562;-33.856;151.182;2023-03-31T09:52:11;1.33;;;0.82;;
20802;SDS011;10562;-33.856;151.182;2023-03-31T09:54:49;2.78;;;1.23;;
20802;SDS011;10562;-33.856;151.182;2023-03-31T09:57:23;2.55;;;1.20;;
20802;SDS011;10562;-33.856;151.182;2023-03-31T10:00:01;2.70;;;1.30;;
20802;SDS011;10562;-33.856;151.182;2023-03-31T10:02:41;3.45;;;1.52;;
20802;SDS011;10562;-33.856;151.182;2023-03-31T10:05:26;4.05;;;1.50;;
20802;SDS011;10562;-33.856;151.182;2023-03-31T10:08:20;5.43;;;1.98;;
20802;SDS011;10562;-33.856;151.182;2023-03-31T10:10:54;4.20;;;1.85;;
20802;SDS011;10562;-33.856;151.182;2023-03-31T10:13:35;3.75;;;1.63;;
20802;SDS011;10562;-33.856;151.182;2023-03-31T10:16:12;3.90;;;1.70;;
20802;SDS011;10562;-33.856;151.182;2023-03-31T10:18:50;3.95;;;1.80;;
20802;SDS011;10562;-33.856;151.182;2023-03-31T10:21:22;4.13;;;1.92;;
20802;SDS011;10562;-33.856;151.182;2023-03-31T10:23:56;5.85;;;2.25;;
20802;SDS011;10562;-33.856;151.182;2023-03-31T10:26:29;3.53;;;1.88;;
20802;SDS011;10562;-33.856;151.182;2023-03-31T10:29:00;4.60;;;2.15;;
20802;SDS011;10562;-33.856;151.182;2023-03-31T10:31:38;5.20;;;2.47;;
20802;SDS011;10562;-33.856;151.182;2023-03-31T10:34:11;4.22;;;2.08;;
20802;SDS011;10562;-33.856;151.182;2023-03-31T10:36:45;4.55;;;2.13;;
20802;SDS011;10562;-33.856;151.182;2023-03-31T10:39:20;8.05;;;3.17;;
20802;SDS011;10562;-33.856;151.182;2023-03-31T10:41:59;12.60;;;4.00;;
20802;SDS011;10562;-33.856;151.182;2023-03-31T10:44:31;7.35;;;2.67;;
20802;SDS011;10562;-33.856;151.182;2023-03-31T10:47:04;5.10;;;1.80;;
20802;SDS011;10562;-33.856;151.182;2023-03-31T10:49:47;3.20;;;1.73;;
20802;SDS011;10562;-33.856;151.182;2023-03-31T10:52:24;2.83;;;1.55;;
20802;SDS011;10562;-33.856;151.182;2023-03-31T10:54:57;2.70;;;1.58;;
20802;SDS011;10562;-33.856;151.182;2023-03-31T10:57:31;4.80;;;1.70;;
20802;SDS011;10562;-33.856;151.182;2023-03-31T11:00:15;5.00;;;1.52;;
20802;SDS011;10562;-33.856;151.182;2023-03-31T11:05:54;2.88;;;1.50;;
20802;SDS011;10562;-33.856;151.182;2023-03-31T11:08:34;3.28;;;1.58;;
20802;SDS011;10562;-33.856;151.182;2023-03-31T11:11:30;3.50;;;1.50;;
20802;SDS011;10562;-33.856;151.182;2023-03-31T11:14:16;3.17;;;1.58;;
20802;SDS011;10562;-33.856;151.182;2023-03-31T11:16:54;2.83;;;1.50;;
20802;SDS011;10562;-33.856;151.182;2023-03-31T11:19:30;3.10;;;1.40;;
20802;SDS011;10562;-33.856;151.182;2023-03-31T11:22:10;4.75;;;1.52;;
20802;SDS011;10562;-33.856;151.182;2023-03-31T11:25:07;3.38;;;1.50;;
20802;SDS011;10562;-33.856;151.182;2023-03-31T11:30:49;2.17;;;1.20;;
20802;SDS011;10562;-33.856;151.182;2023-03-31T11:36:47;2.42;;;1.30;;
20802;SDS011;10562;-33.856;151.182;2023-03-31T11:39:32;3.40;;;1.30;;
20802;SDS011;10562;-33.856;151.182;2023-03-31T11:42:14;4.82;;;1.30;;
20802;SDS011;10562;-33.856;151.182;2023-03-31T11:44:51;2.47;;;1.35;;
20802;SDS011;10562;-33.856;151.182;2023-03-31T11:47:25;4.07;;;1.30;;
20802;SDS011;10562;-33.856;151.182;2023-03-31T11:49:59;2.65;;;1.25;;
20802;SDS011;10562;-33.856;151.182;2023-03-31T11:52:33;3.25;;;1.40;;
20802;SDS011;10562;-33.856;151.182;2023-03-31T11:55:11;1.92;;;1.20;;
20802;SDS011;10562;-33.856;151.182;2023-03-31T11:57:57;4.15;;;1.25;;
20802;SDS011;10562;-33.856;151.182;2023-03-31T12:00:33;2.42;;;1.30;;
20802;SDS011;10562;-33.856;151.182;2023-03-31T12:03:09;2.47;;;1.20;;
20802;SDS011;10562;-33.856;151.182;2023-03-31T12:05:43;2.28;;;1.17;;
20802;SDS011;10562;-33.856;151.182;2023-03-31T12:08:16;3.25;;;1.25;;
20802;SDS011;10562;-33.856;151.182;2023-03-31T12:10:53;3.72;;;1.25;;
20802;SDS011;10562;-33.856;151.182;2023-03-31T12:13:37;2.42;;;1.33;;
20802;SDS011;10562;-33.856;151.182;2023-03-31T12:16:16;2.67;;;1.33;;
20802;SDS011;10562;-33.856;151.182;2023-03-31T12:18:54;3.03;;;1.30;;
20802;SDS011;10562;-33.856;151.182;2023-03-31T12:21:30;2.17;;;1.17;;
20802;SDS011;10562;-33.856;151.182;2023-03-31T12:24:03;2.45;;;1.20;;
20802;SDS011;10562;-33.856;151.182;2023-03-31T12:26:35;2.10;;;1.27;;
20802;SDS011;10562;-33.856;151.182;2023-03-31T12:29:14;2.45;;;1.10;;
20802;SDS011;10562;-33.856;151.182;2023-03-31T12:31:56;4.32;;;1.33;;
20802;SDS011;10562;-33.856;151.182;2023-03-31T12:34:31;2.38;;;1.42;;
20802;SDS011;10562;-33.856;151.182;2023-03-31T12:40:25;2.97;;;1.40;;
20802;SDS011;10562;-33.856;151.182;2023-03-31T12:46:23;2.80;;;1.25;;
20802;SDS011;10562;-33.856;151.182;2023-03-31T12:49:12;3.13;;;1.20;;
20802;SDS011;10562;-33.856;151.182;2023-03-31T12:51:56;2.25;;;1.17;;
20802;SDS011;10562;-33.856;151.182;2023-03-31T12:54:37;1.63;;;1.10;;
20802;SDS011;10562;-33.856;151.182;2023-03-31T12:57:21;1.98;;;1.30;;
20802;SDS011;10562;-33.856;151.182;2023-03-31T13:02:50;2.15;;;1.10;;
20802;SDS011;10562;-33.856;151.182;2023-03-31T13:06:01;3.78;;;1.40;;
20802;SDS011;10562;-33.856;151.182;2023-03-31T13:08:51;2.20;;;1.20;;
20802;SDS011;10562;-33.856;151.182;2023-03-31T13:11:34;2.00;;;1.25;;
20802;SDS011;10562;-33.856;151.182;2023-03-31T13:14:11;4.85;;;1.20;;
20802;SDS011;10562;-33.856;151.182;2023-03-31T13:16:44;4.95;;;1.30;;
20802;SDS011;10562;-33.856;151.182;2023-03-31T13:19:24;3.33;;;1.40;;
20802;SDS011;10562;-33.856;151.182;2023-03-31T13:22:00;3.05;;;1.20;;
20802;SDS011;10562;-33.856;151.182;2023-03-31T13:24:33;2.72;;;1.30;;
20802;SDS011;10562;-33.856;151.182;2023-03-31T13:29:58;4.50;;;1.35;;
20802;SDS011;10562;-33.856;151.182;2023-03-31T13:32:29;1.52;;;1.10;;
20802;SDS011;10562;-33.856;151.182;2023-03-31T13:35:01;2.10;;;1.20;;
20802;SDS011;10562;-33.856;151.182;2023-03-31T13:37:48;2.05;;;1.20;;
20802;SDS011;10562;-33.856;151.182;2023-03-31T13:43:46;1.30;;;0.98;;
20802;SDS011;10562;-33.856;151.182;2023-03-31T13:49:55;1.55;;;1.20;;
20802;SDS011;10562;-33.856;151.182;2023-03-31T13:52:59;1.70;;;1.25;;
20802;SDS011;10562;-33.856;151.182;2023-03-31T13:55:48;1.77;;;1.00;;
20802;SDS011;10562;-33.856;151.182;2023-03-31T13:58:55;2.42;;;1.23;;
20802;SDS011;10562;-33.856;151.182;2023-03-31T14:01:56;4.60;;;1.38;;
20802;SDS011;10562;-33.856;151.182;2023-03-31T14:04:57;2.08;;;1.30;;
20802;SDS011;10562;-33.856;151.182;2023-03-31T14:07:37;3.55;;;1.20;;
20802;SDS011;10562;-33.856;151.182;2023-03-31T14:10:23;1.38;;;1.10;;
20802;SDS011;10562;-33.856;151.182;2023-03-31T14:13:07;3.20;;;1.35;;
20802;SDS011;10562;-33.856;151.182;2023-03-31T14:15:40;4.47;;;1.30;;
20802;SDS011;10562;-33.856;151.182;2023-03-31T14:18:14;2.80;;;1.35;;
20802;SDS011;10562;-33.856;151.182;2023-03-31T14:20:54;4.80;;;1.50;;
20802;SDS011;10562;-33.856;151.182;2023-03-31T14:23:39;3.90;;;1.73;;
20802;SDS011;10562;-33.856;151.182;2023-03-31T14:26:24;2.92;;;1.52;;
20802;SDS011;10562;-33.856;151.182;2023-03-31T14:29:14;3.38;;;1.40;;
20802;SDS011;10562;-33.856;151.182;2023-03-31T14:31:52;2.38;;;1.52;;
20802;SDS011;10562;-33.856;151.182;2023-03-31T14:34:39;1.60;;;1.15;;
20802;SDS011;10562;-33.856;151.182;2023-03-31T14:37:25;4.63;;;1.58;;
20802;SDS011;10562;-33.856;151.182;2023-03-31T14:39:57;3.30;;;1.40;;
20802;SDS011;10562;-33.856;151.182;2023-03-31T14:42:34;2.22;;;1.40;;
20802;SDS011;10562;-33.856;151.182;2023-03-31T14:45:14;2.92;;;1.30;;
20802;SDS011;10562;-33.856;151.182;2023-03-31T14:47:56;1.40;;;1.10;;
20802;SDS011;10562;-33.856;151.182;2023-03-31T14:50:32;2.45;;;1.25;;
20802;SDS011;10562;-33.856;151.182;2023-03-31T14:53:03;2.65;;;1.50;;
20802;SDS011;10562;-33.856;151.182;2023-03-31T14:55:41;1.92;;;1.20;;
20802;SDS011;10562;-33.856;151.182;2023-03-31T14:58:16;2.63;;;1.20;;
20802;SDS011;10562;-33.856;151.182;2023-03-31T15:00:53;1.83;;;1.10;;
20802;SDS011;10562;-33.856;151.182;2023-03-31T15:03:24;2.35;;;1.08;;
20802;SDS011;10562;-33.856;151.182;2023-03-31T15:05:55;3.22;;;1.10;;
20802;SDS011;10562;-33.856;151.182;2023-03-31T15:08:28;2.92;;;1.10;;
20802;SDS011;10562;-33.856;151.182;2023-03-31T15:11:02;3.65;;;1.20;;
20802;SDS011;10562;-33.856;151.182;2023-03-31T15:13:38;1.75;;;1.10;;
20802;SDS011;10562;-33.856;151.182;2023-03-31T15:16:25;3.08;;;1.10;;
20802;SDS011;10562;-33.856;151.182;2023-03-31T15:19:10;1.67;;;1.13;;
20802;SDS011;10562;-33.856;151.182;2023-03-31T15:21:49;4.03;;;1.20;;
20802;SDS011;10562;-33.856;151.182;2023-03-31T15:24:26;2.65;;;1.20;;
20802;SDS011;10562;-33.856;151.182;2023-03-31T15:26:58;2.45;;;1.30;;
20802;SDS011;10562;-33.856;151.182;2023-03-31T15:29:33;3.40;;;1.42;;
20802;SDS011;10562;-33.856;151.182;2023-03-31T15:32:11;3.28;;;1.52;;
20802;SDS011;10562;-33.856;151.182;2023-03-31T15:34:43;5.18;;;1.80;;